sensor_id;sensor_type;location;lat;lon;timestamp;pressure;altitude;pressure_sealevel;temperature;humidity
4022;BME280;2025;48.260;16.432;2022-08-11T00:02:27;100406.34;;;16.74;100.00
4022;BME280;2025;48.260;16.432;2022-08-11T00:05:03;100404.59;;;16.70;100.00
4022;BME280;2025;48.260;16.432;2022-08-11T00:07:32;100407.25;;;16.63;100.00
4022;BME280;2025;48.260;16.432;2022-08-11T00:10:00;100399.31;;;16.62;100.00
4022;BME280;2025;48.260;16.432;2022-08-11T00:12:29;100409.03;;;16.60;100.00
4022;BME280;2025;48.260;16.432;2022-08-11T00:14:58;100409.03;;;16.58;100.00
4022;BME280;2025;48.260;16.432;2022-08-11T00:17:28;100406.41;;;16.54;100.00
4022;BME280;2025;48.260;16.432;2022-08-11T00:20:04;100405.56;;;16.50;100.00
4022;BME280;2025;48.260;16.432;2022-08-11T00:22:32;100409.13;;;16.43;100.00
4022;BME280;2025;48.260;16.432;2022-08-11T00:25:06;100408.28;;;16.36;100.00
4022;BME280;2025;48.260;16.432;2022-08-11T00:27:37;100402.13;;;16.30;100.00
4022;BME280;2025;48.260;16.432;2022-08-11T00:30:06;100409.13;;;16.40;100.00
4022;BME280;2025;48.260;16.432;2022-08-11T00:32:36;100398.56;;;16.40;100.00
4022;BME280;2025;48.260;16.432;2022-08-11T00:35:06;100398.53;;;16.43;100.00
4022;BME280;2025;48.260;16.432;2022-08-11T00:37:35;100407.34;;;16.44;100.00
4022;BME280;2025;48.260;16.432;2022-08-11T00:40:07;100402.06;;;16.45;100.00
4022;BME280;2025;48.260;16.432;2022-08-11T00:42:57;100406.50;;;16.40;100.00
4022;BME280;2025;48.260;16.432;2022-08-11T00:45:31;100404.72;;;16.39;100.00
4022;BME280;2025;48.260;16.432;2022-08-11T00:48:06;100399.47;;;16.33;100.00
4022;BME280;2025;48.260;16.432;2022-08-11T00:50:42;100398.59;;;16.31;100.00
4022;BME280;2025;48.260;16.432;2022-08-11T00:53:29;100395.03;;;16.41;100.00
4022;BME280;2025;48.260;16.432;2022-08-11T00:59:46;100394.91;;;16.62;100.00
4022;BME280;2025;48.260;16.432;2022-08-11T01:02:47;100394.03;;;16.63;100.00
4022;BME280;2025;48.260;16.432;2022-08-11T01:05:33;100390.50;;;16.64;100.00
4022;BME280;2025;48.260;16.432;2022-08-11T01:11:45;100398.31;;;16.86;100.00
4022;BME280;2025;48.260;16.432;2022-08-11T01:18:09;100394.63;;;17.07;100.00
4022;BME280;2025;48.260;16.432;2022-08-11T01:21:01;100393.75;;;17.06;100.00
4022;BME280;2025;48.260;16.432;2022-08-11T01:24:08;100380.44;;;17.15;100.00
4022;BME280;2025;48.260;16.432;2022-08-11T01:30:16;100387.50;;;17.16;100.00
4022;BME280;2025;48.260;16.432;2022-08-11T01:42:37;100387.91;;;16.52;100.00
4022;BME280;2025;48.260;16.432;2022-08-11T01:45:41;100383.59;;;16.38;100.00
4022;BME280;2025;48.260;16.432;2022-08-11T01:48:26;100387.13;;;16.33;100.00
4022;BME280;2025;48.260;16.432;2022-08-11T01:51:04;100389.72;;;16.44;100.00
4022;BME280;2025;48.260;16.432;2022-08-11T01:53:46;100387.97;;;16.40;100.00
4022;BME280;2025;48.260;16.432;2022-08-11T01:56:31;100378.28;;;16.41;100.00
4022;BME280;2025;48.260;16.432;2022-08-11T01:59:09;100383.56;;;16.39;100.00
4022;BME280;2025;48.260;16.432;2022-08-11T02:02:04;100388.00;;;16.37;100.00
4022;BME280;2025;48.260;16.432;2022-08-11T02:04:42;100383.56;;;16.41;100.00
4022;BME280;2025;48.260;16.432;2022-08-11T02:07:18;100388.75;;;16.60;100.00
4022;BME280;2025;48.260;16.432;2022-08-11T02:09:59;100381.72;;;16.58;100.00
4022;BME280;2025;48.260;16.432;2022-08-11T02:12:53;100379.94;;;16.57;100.00
4022;BME280;2025;48.260;16.432;2022-08-11T02:15:26;100378.19;;;16.54;100.00
4022;BME280;2025;48.260;16.432;2022-08-11T02:18:04;100373.81;;;16.53;100.00
4022;BME280;2025;48.260;16.432;2022-08-11T02:20:40;100372.00;;;16.60;100.00
4022;BME280;2025;48.260;16.432;2022-08-11T02:23:28;100380.81;;;16.66;100.00
4022;BME280;2025;48.260;16.432;2022-08-11T02:26:15;100375.56;;;16.54;100.00
4022;BME280;2025;48.260;16.432;2022-08-11T02:29:00;100380.84;;;16.54;100.00
4022;BME280;2025;48.260;16.432;2022-08-11T02:31:49;100385.28;;;16.51;100.00
4022;BME280;2025;48.260;16.432;2022-08-11T02:34:43;100383.50;;;16.51;100.00
4022;BME280;2025;48.260;16.432;2022-08-11T02:37:17;100387.06;;;16.47;100.00
4022;BME280;2025;48.260;16.432;2022-08-11T02:39:59;100381.78;;;16.46;100.00
4022;BME280;2025;48.260;16.432;2022-08-11T02:42:37;100377.38;;;16.46;100.00
4022;BME280;2025;48.260;16.432;2022-08-11T02:45:15;100381.72;;;16.55;100.00
4022;BME280;2025;48.260;16.432;2022-08-11T02:47:54;100380.00;;;16.49;100.00
4022;BME280;2025;48.260;16.432;2022-08-11T02:50:51;100377.34;;;16.48;100.00
4022;BME280;2025;48.260;16.432;2022-08-11T02:53:29;100376.53;;;16.40;100.00
4022;BME280;2025;48.260;16.432;2022-08-11T02:56:05;100374.75;;;16.39;100.00
4022;BME280;2025;48.260;16.432;2022-08-11T02:58:43;100383.56;;;16.39;100.00
4022;BME280;2025;48.260;16.432;2022-08-11T03:01:41;100380.06;;;16.34;100.00
4022;BME280;2025;48.260;16.432;2022-08-11T03:04:17;100389.78;;;16.32;100.00
4022;BME280;2025;48.260;16.432;2022-08-11T03:06:49;100392.44;;;16.30;100.00
4022;BME280;2025;48.260;16.432;2022-08-11T03:09:18;100379.25;;;16.20;100.00
4022;BME280;2025;48.260;16.432;2022-08-11T03:11:57;100376.69;;;16.06;100.00
4022;BME280;2025;48.260;16.432;2022-08-11T03:14:48;100374.97;;;15.88;100.00
4022;BME280;2025;48.260;16.432;2022-08-11T03:17:39;100381.13;;;15.90;100.00
4022;BME280;2025;48.260;16.432;2022-08-11T03:20:22;100377.59;;;15.91;100.00
4022;BME280;2025;48.260;16.432;2022-08-11T03:22:59;100372.34;;;15.82;100.00
4022;BME280;2025;48.260;16.432;2022-08-11T03:25:35;100375.91;;;15.66;100.00
4022;BME280;2025;48.260;16.432;2022-08-11T03:28:13;100376.78;;;15.74;100.00
4022;BME280;2025;48.260;16.432;2022-08-11T03:30:51;100386.47;;;15.69;100.00
4022;BME280;2025;48.260;16.432;2022-08-11T03:33:23;100383.84;;;15.64;100.00
4022;BME280;2025;48.260;16.432;2022-08-11T03:36:19;100373.25;;;15.58;100.00
4022;BME280;2025;48.260;16.432;2022-08-11T03:39:00;100375.03;;;15.58;100.00
4022;BME280;2025;48.260;16.432;2022-08-11T03:41:34;100382.97;;;15.61;100.00
4022;BME280;2025;48.260;16.432;2022-08-11T03:44:33;100375.91;;;15.66;100.00
4022;BME280;2025;48.260;16.432;2022-08-11T03:47:29;100379.44;;;15.68;100.00
4022;BME280;2025;48.260;16.432;2022-08-11T03:50:11;100380.31;;;15.71;100.00
4022;BME280;2025;48.260;16.432;2022-08-11T03:52:50;100378.56;;;15.67;100.00
4022;BME280;2025;48.260;16.432;2022-08-11T03:55:29;100373.28;;;15.67;100.00
4022;BME280;2025;48.260;16.432;2022-08-11T03:58:29;100380.28;;;15.78;100.00
4022;BME280;2025;48.260;16.432;2022-08-11T04:04:17;100375.84;;;15.89;100.00
4022;BME280;2025;48.260;16.432;2022-08-11T04:07:06;100375.84;;;15.93;100.00
4022;BME280;2025;48.260;16.432;2022-08-11T04:13:12;100379.34;;;16.01;100.00
4022;BME280;2025;48.260;16.432;2022-08-11T04:16:15;100384.63;;;16.04;100.00
4022;BME280;2025;48.260;16.432;2022-08-11T04:19:17;100381.97;;;16.03;100.00
4022;BME280;2025;48.260;16.432;2022-08-11T04:25:28;100385.47;;;16.10;100.00
4022;BME280;2025;48.260;16.432;2022-08-11T04:28:26;100380.16;;;16.20;100.00
4022;BME280;2025;48.260;16.432;2022-08-11T04:31:12;100384.53;;;16.23;100.00
4022;BME280;2025;48.260;16.432;2022-08-11T04:33:57;100388.03;;;16.28;100.00
4022;BME280;2025;48.260;16.432;2022-08-11T04:36:51;100392.41;;;16.36;100.00
4022;BME280;2025;48.260;16.432;2022-08-11T04:39:52;100380.03;;;16.40;100.00
4022;BME280;2025;48.260;16.432;2022-08-11T04:43:04;100390.59;;;16.45;100.00
4022;BME280;2025;48.260;16.432;2022-08-11T04:46:09;100389.72;;;16.44;100.00
4022;BME280;2025;48.260;16.432;2022-08-11T04:48:52;100386.13;;;16.57;100.00
4022;BME280;2025;48.260;16.432;2022-08-11T04:51:52;100379.91;;;16.63;100.00
4022;BME280;2025;48.260;16.432;2022-08-11T04:54:53;100391.34;;;16.74;100.00
4022;BME280;2025;48.260;16.432;2022-08-11T04:57:50;100390.41;;;16.80;100.00
4022;BME280;2025;48.260;16.432;2022-08-11T05:00:44;100385.09;;;16.86;100.00
4022;BME280;2025;48.260;16.432;2022-08-11T05:04:06;100391.19;;;16.95;100.00
4022;BME280;2025;48.260;16.432;2022-08-11T05:10:11;100393.75;;;17.06;100.00
4022;BME280;2025;48.260;16.432;2022-08-11T05:12:45;100403.38;;;17.18;100.00
4022;BME280;2025;48.260;16.432;2022-08-11T05:15:18;100396.28;;;17.23;100.00
4022;BME280;2025;48.260;16.432;2022-08-11T05:18:09;100391.78;;;17.34;100.00
4022;BME280;2025;48.260;16.432;2022-08-11T05:21:03;100401.41;;;17.44;100.00
4022;BME280;2025;48.260;16.432;2022-08-11T05:23:55;100400.38;;;17.60;100.00
4022;BME280;2025;48.260;16.432;2022-08-11T05:26:45;100398.53;;;17.70;100.00
4022;BME280;2025;48.260;16.432;2022-08-11T05:29:41;100400.25;;;17.77;100.00
4022;BME280;2025;48.260;16.432;2022-08-11T05:32:34;100395.72;;;17.85;100.00
4022;BME280;2025;48.260;16.432;2022-08-11T05:35:26;100401.78;;;17.98;100.00
4022;BME280;2025;48.260;16.432;2022-08-11T05:37:57;100402.53;;;18.08;100.00
4022;BME280;2025;48.260;16.432;2022-08-11T05:40:49;100405.13;;;18.14;100.00
4022;BME280;2025;48.260;16.432;2022-08-11T05:43:39;100397.06;;;18.23;100.00
4022;BME280;2025;48.260;16.432;2022-08-11T05:46:26;100401.31;;;18.35;100.00
4022;BME280;2025;48.260;16.432;2022-08-11T05:49:12;100396.81;;;18.41;100.00
4022;BME280;2025;48.260;16.432;2022-08-11T05:51:57;100395.72;;;18.56;100.00
4022;BME280;2025;48.260;16.432;2022-08-11T05:54:45;100394.75;;;18.65;100.00
4022;BME280;2025;48.260;16.432;2022-08-11T05:57:32;100391.13;;;18.70;100.00
4022;BME280;2025;48.260;16.432;2022-08-11T06:00:04;100390.09;;;18.80;100.00
4022;BME280;2025;48.260;16.432;2022-08-11T06:05:07;100396.88;;;19.00;100.00
4022;BME280;2025;48.260;16.432;2022-08-11T06:07:35;100410.03;;;19.10;100.00
4022;BME280;2025;48.260;16.432;2022-08-11T06:10:05;100392.22;;;19.17;100.00
4022;BME280;2025;48.260;16.432;2022-08-11T06:12:33;100398.28;;;19.25;100.00
4022;BME280;2025;48.260;16.432;2022-08-11T06:15:04;100402.50;;;19.37;100.00
4022;BME280;2025;48.260;16.432;2022-08-11T06:17:34;100404.16;;;19.44;100.00
4022;BME280;2025;48.260;16.432;2022-08-11T06:20:10;100403.16;;;19.52;100.00
4022;BME280;2025;48.260;16.432;2022-08-11T06:22:38;100402.28;;;19.52;100.00
4022;BME280;2025;48.260;16.432;2022-08-11T06:25:09;100402.13;;;19.61;100.00
4022;BME280;2025;48.260;16.432;2022-08-11T06:27:38;100405.38;;;19.77;100.00
4022;BME280;2025;48.260;16.432;2022-08-11T06:30:07;100400.94;;;19.77;100.00
4022;BME280;2025;48.260;16.432;2022-08-11T06:32:41;100400.75;;;19.86;100.00
4022;BME280;2025;48.260;16.432;2022-08-11T06:35:18;100406.22;;;20.24;100.00
4022;BME280;2025;48.260;16.432;2022-08-11T06:38:00;100409.47;;;20.38;100.00
4022;BME280;2025;48.260;16.432;2022-08-11T06:40:35;100410.41;;;20.35;100.00
4022;BME280;2025;48.260;16.432;2022-08-11T06:43:09;100413.13;;;20.32;100.00
4022;BME280;2025;48.260;16.432;2022-08-11T06:45:41;100406.09;;;20.30;100.00
4022;BME280;2025;48.260;16.432;2022-08-11T06:48:15;100410.06;;;20.52;100.00
4022;BME280;2025;48.260;16.432;2022-08-11T06:50:49;100406.41;;;20.58;100.00
4022;BME280;2025;48.260;16.432;2022-08-11T06:53:39;100406.38;;;20.59;100.00
4022;BME280;2025;48.260;16.432;2022-08-11T06:56:13;100406.03;;;20.74;100.00
4022;BME280;2025;48.260;16.432;2022-08-11T06:59:01;100396.25;;;20.75;100.00
4022;BME280;2025;48.260;16.432;2022-08-11T07:01:50;100401.47;;;20.81;100.00
4022;BME280;2025;48.260;16.432;2022-08-11T07:04:31;100397.59;;;20.94;100.00
4022;BME280;2025;48.260;16.432;2022-08-11T07:07:25;100392.75;;;21.11;100.00
4022;BME280;2025;48.260;16.432;2022-08-11T07:10:34;100393.31;;;21.26;100.00
4022;BME280;2025;48.260;16.432;2022-08-11T07:13:30;100394.00;;;21.34;100.00
4022;BME280;2025;48.260;16.432;2022-08-11T07:16:20;100396.31;;;21.48;100.00
4022;BME280;2025;48.260;16.432;2022-08-11T07:18:54;100389.25;;;21.45;100.00
4022;BME280;2025;48.260;16.432;2022-08-11T07:21:39;100385.31;;;21.60;100.00
4022;BME280;2025;48.260;16.432;2022-08-11T07:24:32;100383.06;;;21.44;100.00
4022;BME280;2025;48.260;16.432;2022-08-11T07:27:21;100383.19;;;21.72;100.00
4022;BME280;2025;48.260;16.432;2022-08-11T07:30:14;100383.13;;;21.75;100.00
4022;BME280;2025;48.260;16.432;2022-08-11T07:32:54;100382.03;;;21.83;100.00
4022;BME280;2025;48.260;16.432;2022-08-11T07:35:42;100375.69;;;21.87;100.00
4022;BME280;2025;48.260;16.432;2022-08-11T07:38:17;100369.13;;;21.98;100.00
4022;BME280;2025;48.260;16.432;2022-08-11T07:40:45;100369.94;;;22.02;100.00
4022;BME280;2025;48.260;16.432;2022-08-11T07:43:15;100369.94;;;22.02;100.00
4022;BME280;2025;48.260;16.432;2022-08-11T07:45:51;100366.25;;;22.07;100.00
4022;BME280;2025;48.260;16.432;2022-08-11T07:48:41;100372.19;;;22.17;100.00
4022;BME280;2025;48.260;16.432;2022-08-11T07:51:27;100370.84;;;22.32;100.00
4022;BME280;2025;48.260;16.432;2022-08-11T07:54:12;100365.00;;;22.49;100.00
4022;BME280;2025;48.260;16.432;2022-08-11T07:56:42;100366.31;;;22.65;100.00
4022;BME280;2025;48.260;16.432;2022-08-11T07:59:18;100364.47;;;22.67;100.00
4022;BME280;2025;48.260;16.432;2022-08-11T08:02:05;100360.28;;;22.88;98.99
4022;BME280;2025;48.260;16.432;2022-08-11T08:04:52;100361.56;;;23.02;98.91
4022;BME280;2025;48.260;16.432;2022-08-11T08:07:39;100355.41;;;23.27;100.00
4022;BME280;2025;48.260;16.432;2022-08-11T08:10:25;100353.78;;;23.48;97.10
4022;BME280;2025;48.260;16.432;2022-08-11T08:13:11;100357.97;;;23.56;100.00
4022;BME280;2025;48.260;16.432;2022-08-11T08:15:56;100348.81;;;23.63;93.05
4022;BME280;2025;48.260;16.432;2022-08-11T08:18:44;100342.53;;;23.64;93.63
4022;BME280;2025;48.260;16.432;2022-08-11T08:21:13;100352.31;;;23.65;94.62
4022;BME280;2025;48.260;16.432;2022-08-11T08:23:45;100343.00;;;23.76;97.91
4022;BME280;2025;48.260;16.432;2022-08-11T08:26:17;100347.09;;;23.86;88.53
4022;BME280;2025;48.260;16.432;2022-08-11T08:29:05;100356.31;;;24.25;91.46
4022;BME280;2025;48.260;16.432;2022-08-11T08:31:52;100351.72;;;24.30;85.99
4022;BME280;2025;48.260;16.432;2022-08-11T08:34:28;100345.22;;;24.38;83.95
4022;BME280;2025;48.260;16.432;2022-08-11T08:36:58;100338.09;;;24.37;79.86
4022;BME280;2025;48.260;16.432;2022-08-11T08:39:31;100336.19;;;24.40;83.52
4022;BME280;2025;48.260;16.432;2022-08-11T08:42:07;100337.97;;;24.40;83.79
4022;BME280;2025;48.260;16.432;2022-08-11T08:44:44;100337.63;;;24.49;80.63
4022;BME280;2025;48.260;16.432;2022-08-11T08:47:15;100337.94;;;24.63;84.13
4022;BME280;2025;48.260;16.432;2022-08-11T08:49:49;100329.34;;;24.55;76.57
4022;BME280;2025;48.260;16.432;2022-08-11T08:52:22;100320.94;;;24.64;77.84
4022;BME280;2025;48.260;16.432;2022-08-11T08:54:54;100325.13;;;24.71;75.00
4022;BME280;2025;48.260;16.432;2022-08-11T08:57:23;100322.06;;;24.80;70.55
4022;BME280;2025;48.260;16.432;2022-08-11T08:59:58;100317.25;;;24.88;73.56
4022;BME280;2025;48.260;16.432;2022-08-11T09:02:29;100320.22;;;25.24;67.47
4022;BME280;2025;48.260;16.432;2022-08-11T09:05:10;100320.03;;;25.29;73.00
4022;BME280;2025;48.260;16.432;2022-08-11T09:07:40;100316.63;;;25.25;73.24
4022;BME280;2025;48.260;16.432;2022-08-11T09:10:13;100314.13;;;25.41;70.30
4022;BME280;2025;48.260;16.432;2022-08-11T09:12:45;100317.28;;;25.51;76.31
4022;BME280;2025;48.260;16.432;2022-08-11T09:15:13;100307.91;;;25.41;65.66
4022;BME280;2025;48.260;16.432;2022-08-11T09:17:44;100313.28;;;24.77;70.11
4022;BME280;2025;48.260;16.432;2022-08-11T09:20:16;100304.53;;;24.50;71.24
4022;BME280;2025;48.260;16.432;2022-08-11T09:22:44;100308.97;;;24.51;71.87
4022;BME280;2025;48.260;16.432;2022-08-11T09:25:31;100303.56;;;24.52;76.39
4022;BME280;2025;48.260;16.432;2022-08-11T09:28:19;100305.22;;;24.55;74.88
4022;BME280;2025;48.260;16.432;2022-08-11T09:30:49;100300.50;;;24.83;69.10
4022;BME280;2025;48.260;16.432;2022-08-11T09:33:20;100294.06;;;24.87;68.36
4022;BME280;2025;48.260;16.432;2022-08-11T09:35:50;100293.75;;;25.17;61.73
4022;BME280;2025;48.260;16.432;2022-08-11T09:38:19;100292.66;;;25.21;61.67
4022;BME280;2025;48.260;16.432;2022-08-11T09:41:08;100293.06;;;25.12;60.61
4022;BME280;2025;48.260;16.432;2022-08-11T09:43:38;100283.59;;;24.81;66.08
4022;BME280;2025;48.260;16.432;2022-08-11T09:46:27;100287.16;;;24.82;62.32
4022;BME280;2025;48.260;16.432;2022-08-11T09:48:57;100279.25;;;25.41;68.65
4022;BME280;2025;48.260;16.432;2022-08-11T09:51:29;100285.00;;;25.93;56.01
4022;BME280;2025;48.260;16.432;2022-08-11T09:53:58;100277.72;;;25.56;54.59
4022;BME280;2025;48.260;16.432;2022-08-11T09:56:30;100282.94;;;25.18;54.81
4022;BME280;2025;48.260;16.432;2022-08-11T09:59:17;100282.34;;;25.12;57.71
4022;BME280;2025;48.260;16.432;2022-08-11T10:01:47;100290.91;;;25.00;55.57
4022;BME280;2025;48.260;16.432;2022-08-11T10:04:16;100286.34;;;25.02;56.39
4022;BME280;2025;48.260;16.432;2022-08-11T10:06:49;100293.81;;;25.36;56.97
4022;BME280;2025;48.260;16.432;2022-08-11T10:09:37;100294.63;;;25.78;51.21
4022;BME280;2025;48.260;16.432;2022-08-11T10:12:08;100279.47;;;25.96;51.77
4022;BME280;2025;48.260;16.432;2022-08-11T10:14:43;100282.56;;;26.26;50.73
4022;BME280;2025;48.260;16.432;2022-08-11T10:17:38;100271.53;;;26.51;51.55
4022;BME280;2025;48.260;16.432;2022-08-11T10:20:33;100276.63;;;26.57;48.65
4022;BME280;2025;48.260;16.432;2022-08-11T10:23:03;100272.53;;;26.67;47.19
4022;BME280;2025;48.260;16.432;2022-08-11T10:25:50;100270.78;;;27.37;45.68
4022;BME280;2025;48.260;16.432;2022-08-11T10:28:35;100266.97;;;27.24;43.68
4022;BME280;2025;48.260;16.432;2022-08-11T10:31:05;100253.59;;;27.39;52.53
4022;BME280;2025;48.260;16.432;2022-08-11T10:33:50;100263.22;;;26.74;47.31
4022;BME280;2025;48.260;16.432;2022-08-11T10:36:30;100257.97;;;26.35;49.07
4022;BME280;2025;48.260;16.432;2022-08-11T10:39:00;100257.03;;;25.78;49.44
4022;BME280;2025;48.260;16.432;2022-08-11T10:41:34;100252.97;;;25.70;47.99
4022;BME280;2025;48.260;16.432;2022-08-11T10:44:19;100239.59;;;26.07;48.10
4022;BME280;2025;48.260;16.432;2022-08-11T10:46:49;100237.59;;;26.67;44.47
4022;BME280;2025;48.260;16.432;2022-08-11T10:49:35;100240.06;;;27.41;40.82
4022;BME280;2025;48.260;16.432;2022-08-11T10:52:03;100236.00;;;27.67;47.10
4022;BME280;2025;48.260;16.432;2022-08-11T10:54:50;100244.69;;;26.68;42.62
4022;BME280;2025;48.260;16.432;2022-08-11T10:57:36;100232.78;;;26.74;59.96
4022;BME280;2025;48.260;16.432;2022-08-11T11:00:20;100232.22;;;26.67;46.89
4022;BME280;2025;48.260;16.432;2022-08-11T11:02:49;100223.94;;;26.36;42.53
4022;BME280;2025;48.260;16.432;2022-08-11T11:05:22;100228.19;;;26.93;43.33
4022;BME280;2025;48.260;16.432;2022-08-11T11:07:55;100234.94;;;27.36;40.79
4022;BME280;2025;48.260;16.432;2022-08-11T11:10:26;100222.78;;;27.95;44.87
4022;BME280;2025;48.260;16.432;2022-08-11T11:12:55;100230.13;;;27.26;41.22
4022;BME280;2025;48.260;16.432;2022-08-11T11:15:43;100226.84;;;26.84;44.07
4022;BME280;2025;48.260;16.432;2022-08-11T11:18:30;100219.59;;;26.50;43.69
4022;BME280;2025;48.260;16.432;2022-08-11T11:21:04;100220.84;;;26.25;45.93
4022;BME280;2025;48.260;16.432;2022-08-11T11:23:39;100220.38;;;26.35;45.26
4022;BME280;2025;48.260;16.432;2022-08-11T11:26:34;100230.16;;;26.17;43.71
4022;BME280;2025;48.260;16.432;2022-08-11T11:29:18;100223.03;;;25.98;43.42
4022;BME280;2025;48.260;16.432;2022-08-11T11:31:55;100225.03;;;25.74;45.54
4022;BME280;2025;48.260;16.432;2022-08-11T11:34:53;100220.41;;;25.57;42.88
4022;BME280;2025;48.260;16.432;2022-08-11T11:37:24;100213.38;;;26.50;41.33
4022;BME280;2025;48.260;16.432;2022-08-11T11:39:53;100210.19;;;27.80;42.92
4022;BME280;2025;48.260;16.432;2022-08-11T11:42:24;100193.88;;;28.30;36.65
4022;BME280;2025;48.260;16.432;2022-08-11T11:44:51;100198.22;;;28.01;33.31
4022;BME280;2025;48.260;16.432;2022-08-11T11:47:19;100207.66;;;27.77;37.14
4022;BME280;2025;48.260;16.432;2022-08-11T11:49:48;100210.53;;;27.90;37.29
4022;BME280;2025;48.260;16.432;2022-08-11T11:52:17;100199.41;;;27.30;34.36
4022;BME280;2025;48.260;16.432;2022-08-11T11:54:45;100191.81;;;26.86;36.35
4022;BME280;2025;48.260;16.432;2022-08-11T11:57:16;100191.59;;;26.91;41.74
4022;BME280;2025;48.260;16.432;2022-08-11T12:00:03;100181.28;;;26.47;41.03
4022;BME280;2025;48.260;16.432;2022-08-11T12:02:51;100182.22;;;26.27;39.93
4022;BME280;2025;48.260;16.432;2022-08-11T12:05:19;100178.03;;;26.21;42.18
4022;BME280;2025;48.260;16.432;2022-08-11T12:07:47;100177.03;;;26.05;37.55
4022;BME280;2025;48.260;16.432;2022-08-11T12:10:32;100177.03;;;26.95;36.94
4022;BME280;2025;48.260;16.432;2022-08-11T12:13:01;100165.31;;;27.63;34.78
4022;BME280;2025;48.260;16.432;2022-08-11T12:15:47;100161.00;;;28.85;31.40
4022;BME280;2025;48.260;16.432;2022-08-11T12:18:16;100166.75;;;29.37;35.04
4022;BME280;2025;48.260;16.432;2022-08-11T12:20:44;100149.38;;;30.13;28.56
4022;BME280;2025;48.260;16.432;2022-08-11T12:23:13;100151.34;;;30.50;34.27
4022;BME280;2025;48.260;16.432;2022-08-11T12:26:00;100142.47;;;30.75;30.16
4022;BME280;2025;48.260;16.432;2022-08-11T12:28:45;100144.09;;;30.78;27.06
4022;BME280;2025;48.260;16.432;2022-08-11T12:31:15;100141.59;;;30.75;30.92
4022;BME280;2025;48.260;16.432;2022-08-11T12:33:42;100143.91;;;30.27;28.01
4022;BME280;2025;48.260;16.432;2022-08-11T12:36:13;100137.13;;;29.52;30.77
4022;BME280;2025;48.260;16.432;2022-08-11T12:38:43;100138.78;;;29.10;30.43
4022;BME280;2025;48.260;16.432;2022-08-11T12:41:13;100137.91;;;28.35;31.18
4022;BME280;2025;48.260;16.432;2022-08-11T12:43:59;100130.78;;;28.03;34.80
4022;BME280;2025;48.260;16.432;2022-08-11T12:46:47;100141.56;;;27.54;35.74
4022;BME280;2025;48.260;16.432;2022-08-11T12:49:18;100132.88;;;27.82;38.56
4022;BME280;2025;48.260;16.432;2022-08-11T12:52:05;100126.34;;;28.18;35.24
4022;BME280;2025;48.260;16.432;2022-08-11T12:54:44;100117.66;;;28.58;34.60
4022;BME280;2025;48.260;16.432;2022-08-11T12:57:17;100122.59;;;28.96;35.38
4022;BME280;2025;48.260;16.432;2022-08-11T13:00:05;100115.63;;;28.92;32.40
4022;BME280;2025;48.260;16.432;2022-08-11T13:02:52;100113.25;;;29.01;33.48
4022;BME280;2025;48.260;16.432;2022-08-11T13:05:38;100106.69;;;29.05;35.58
4022;BME280;2025;48.260;16.432;2022-08-11T13:08:09;100102.25;;;28.60;35.98
4022;BME280;2025;48.260;16.432;2022-08-11T13:10:38;100105.09;;;28.73;36.63
4022;BME280;2025;48.260;16.432;2022-08-11T13:13:23;100096.03;;;28.74;37.42
4022;BME280;2025;48.260;16.432;2022-08-11T13:15:51;100102.03;;;28.49;35.11
4022;BME280;2025;48.260;16.432;2022-08-11T13:18:21;100093.41;;;28.28;34.64
4022;BME280;2025;48.260;16.432;2022-08-11T13:20:50;100088.03;;;27.65;34.04
4022;BME280;2025;48.260;16.432;2022-08-11T13:23:19;100095.34;;;27.30;34.75
4022;BME280;2025;48.260;16.432;2022-08-11T13:25:47;100099.50;;;27.20;41.37
4022;BME280;2025;48.260;16.432;2022-08-11T13:28:17;100100.56;;;27.00;45.87
4022;BME280;2025;48.260;16.432;2022-08-11T13:30:46;100098.94;;;26.63;42.12
4022;BME280;2025;48.260;16.432;2022-08-11T13:33:34;100089.91;;;26.47;43.19
4022;BME280;2025;48.260;16.432;2022-08-11T13:36:03;100090.09;;;26.44;43.10
4022;BME280;2025;48.260;16.432;2022-08-11T13:38:31;100091.41;;;26.35;44.00
4022;BME280;2025;48.260;16.432;2022-08-11T13:40:59;100088.41;;;26.41;44.19
4022;BME280;2025;48.260;16.432;2022-08-11T13:43:27;100087.31;;;26.45;45.36
4022;BME280;2025;48.260;16.432;2022-08-11T13:45:55;100080.59;;;26.54;54.97
4022;BME280;2025;48.260;16.432;2022-08-11T13:48:38;100078.78;;;26.55;44.83
4022;BME280;2025;48.260;16.432;2022-08-11T13:51:07;100069.75;;;26.73;51.16
4022;BME280;2025;48.260;16.432;2022-08-11T13:53:53;100072.50;;;27.22;42.39
4022;BME280;2025;48.260;16.432;2022-08-11T13:56:21;100067.00;;;27.72;38.56
4022;BME280;2025;48.260;16.432;2022-08-11T13:58:49;100066.28;;;27.53;38.39
4022;BME280;2025;48.260;16.432;2022-08-11T14:01:18;100067.91;;;27.88;41.93
4022;BME280;2025;48.260;16.432;2022-08-11T14:03:50;100070.50;;;27.90;42.12
4022;BME280;2025;48.260;16.432;2022-08-11T14:06:19;100065.13;;;27.90;37.83
4022;BME280;2025;48.260;16.432;2022-08-11T14:08:48;100062.16;;;27.94;45.92
4022;BME280;2025;48.260;16.432;2022-08-11T14:11:18;100055.56;;;27.68;39.33
4022;BME280;2025;48.260;16.432;2022-08-11T14:14:06;100042.69;;;27.42;49.00
4022;BME280;2025;48.260;16.432;2022-08-11T14:16:40;100055.66;;;27.18;41.01
4022;BME280;2025;48.260;16.432;2022-08-11T14:19:12;100055.88;;;26.98;42.68
4022;BME280;2025;48.260;16.432;2022-08-11T14:21:41;100055.50;;;26.88;43.84
4022;BME280;2025;48.260;16.432;2022-08-11T14:24:27;100052.94;;;27.02;44.88
4022;BME280;2025;48.260;16.432;2022-08-11T14:26:55;100056.00;;;27.12;44.88
4022;BME280;2025;48.260;16.432;2022-08-11T14:29:24;100035.13;;;27.33;50.35
4022;BME280;2025;48.260;16.432;2022-08-11T14:31:53;100043.19;;;27.33;43.80
4022;BME280;2025;48.260;16.432;2022-08-11T14:34:24;100042.03;;;27.05;42.64
4022;BME280;2025;48.260;16.432;2022-08-11T14:36:55;100043.84;;;27.05;47.62
4022;BME280;2025;48.260;16.432;2022-08-11T14:39:25;100044.31;;;26.96;41.31